createdAt,value
2022-11-15T00:00:01.429Z,48.85
2022-11-15T00:02:30.018Z,48.96
2022-11-15T00:04:57.187Z,48.47
2022-11-15T00:07:53.526Z,48.65
2022-11-15T00:10:11.646Z,48.85
2022-11-15T00:12:39.187Z,53.00
2022-11-15T00:15:07.927Z,47.38
2022-11-15T00:17:36.388Z,47.16
2022-11-15T00:20:03.925Z,47.89
2022-11-15T00:22:33.207Z,47.43
2022-11-15T00:25:00.272Z,47.59
2022-11-15T00:27:27.726Z,46.97
2022-11-15T00:29:54.813Z,46.77
2022-11-15T00:32:21.847Z,47.01
2022-11-15T00:34:50.328Z,47.33
2022-11-15T00:37:17.325Z,48.17
2022-11-15T00:39:44.386Z,48.90
2022-11-15T00:42:11.433Z,48.90
2022-11-15T00:44:38.517Z,49.23
2022-11-15T00:47:05.628Z,49.26
2022-11-15T00:49:32.827Z,49.68
2022-11-15T00:52:01.453Z,49.49
2022-11-15T00:54:28.476Z,49.66
2022-11-15T00:56:55.476Z,49.66
2022-11-15T00:59:22.547Z,49.04
2022-11-15T01:01:49.605Z,49.25
2022-11-15T01:04:16.828Z,48.34
2022-11-15T01:06:44.092Z,47.57
2022-11-15T01:09:13.006Z,47.08
2022-11-15T01:11:40.149Z,47.80
2022-11-15T01:14:07.285Z,47.40
2022-11-15T01:16:34.756Z,47.35
2022-11-15T01:19:02.187Z,47.42
2022-11-15T01:21:29.486Z,48.34
2022-11-15T01:23:58.205Z,47.58
2022-11-15T01:26:27.768Z,47.00
2022-11-15T01:28:54.806Z,47.07
2022-11-15T01:31:22.565Z,47.04
2022-11-15T01:33:50.926Z,47.57
2022-11-15T01:36:21.385Z,47.81
2022-11-15T01:38:54.097Z,47.89
2022-11-15T01:41:24.060Z,47.68
2022-11-15T01:43:54.447Z,47.24
2022-11-15T01:46:30.806Z,47.07
2022-11-15T01:49:02.866Z,47.12
2022-11-15T01:51:34.386Z,47.05
2022-11-15T01:54:07.888Z,47.58
2022-11-15T01:56:42.425Z,47.30
2022-11-15T01:59:12.705Z,47.94
2022-11-15T02:01:40.267Z,47.91
2022-11-15T02:04:14.526Z,48.31
2022-11-15T02:06:44.190Z,48.20
2022-11-15T02:09:13.086Z,48.39
2022-11-15T02:11:40.685Z,48.30
2022-11-15T02:14:11.385Z,48.86
2022-11-15T02:16:50.185Z,48.58
2022-11-15T02:19:38.327Z,48.81
2022-11-15T02:22:23.366Z,48.48
2022-11-15T02:25:10.546Z,49.00
2022-11-15T02:28:11.716Z,48.24
2022-11-15T02:30:46.959Z,47.76
2022-11-15T02:33:30.911Z,46.75
2022-11-15T02:36:02.025Z,47.07
2022-11-15T02:38:39.990Z,46.17
2022-11-15T02:41:14.646Z,45.68
2022-11-15T02:43:51.086Z,44.91
2022-11-15T02:46:27.206Z,45.71
2022-11-15T02:48:54.306Z,45.10
2022-11-15T02:51:22.626Z,45.47
2022-11-15T02:53:49.667Z,44.25
2022-11-15T02:56:16.725Z,45.26
2022-11-15T02:59:15.427Z,45.36
2022-11-15T03:01:59.985Z,45.69
2022-11-15T03:04:41.596Z,46.02
2022-11-15T03:07:16.523Z,45.96
2022-11-15T03:09:53.346Z,46.16
2022-11-15T03:12:30.026Z,46.13
2022-11-15T03:15:02.546Z,45.73
2022-11-15T03:17:36.546Z,45.71
2022-11-15T03:20:09.006Z,46.42
2022-11-15T03:22:41.204Z,46.31
2022-11-15T03:25:14.987Z,46.79
2022-11-15T03:27:54.636Z,47.37
2022-11-15T03:30:22.145Z,47.05
2022-11-15T03:32:55.465Z,47.06
2022-11-15T03:35:25.404Z,45.76
2022-11-15T03:38:01.008Z,46.76
2022-11-15T03:40:35.566Z,46.46
2022-11-15T03:43:11.028Z,47.14
2022-11-15T03:45:45.850Z,46.28
2022-11-15T03:48:21.334Z,54.06
2022-11-15T03:50:50.115Z,54.14
2022-11-15T03:53:18.625Z,51.88
2022-11-15T03:55:46.067Z,51.52
2022-11-15T03:58:13.164Z,51.51
2022-11-15T04:00:40.226Z,49.55
2022-11-15T04:03:07.286Z,50.60
2022-11-15T04:05:35.879Z,49.42
2022-11-15T04:08:02.955Z,49.91
2022-11-15T04:10:30.065Z,49.80
2022-11-15T04:12:57.105Z,48.96
2022-11-15T04:15:25.485Z,48.80
2022-11-15T04:17:55.105Z,48.66
2022-11-15T04:20:24.426Z,48.18
2022-11-15T04:22:55.946Z,47.47
2022-11-15T04:25:24.699Z,47.37
2022-11-15T04:27:54.326Z,47.74
2022-11-15T04:30:21.406Z,46.97
2022-11-15T04:32:48.466Z,47.64
2022-11-15T04:35:15.846Z,46.75
2022-11-15T04:37:47.904Z,46.73
2022-11-15T04:40:18.186Z,47.29
2022-11-15T04:42:45.766Z,46.79
2022-11-15T04:45:12.931Z,46.84
2022-11-15T04:47:40.007Z,46.20
2022-11-15T04:50:08.087Z,46.46
2022-11-15T04:52:35.187Z,46.58
2022-11-15T04:55:07.781Z,46.05
2022-11-15T04:57:36.765Z,46.28
2022-11-15T05:00:05.625Z,46.65
2022-11-15T05:02:32.674Z,46.00
2022-11-15T05:04:59.747Z,46.55
2022-11-15T05:07:26.770Z,46.18
2022-11-15T05:09:53.826Z,46.91
2022-11-15T05:12:20.888Z,46.17
2022-11-15T05:14:49.365Z,46.21
2022-11-15T05:17:16.467Z,46.02
2022-11-15T05:19:43.509Z,46.70
2022-11-15T05:22:10.544Z,46.15
2022-11-15T05:24:37.625Z,46.48
2022-11-15T05:27:04.627Z,46.70
2022-11-15T05:29:31.687Z,46.36
2022-11-15T05:32:00.844Z,46.79
2022-11-15T05:34:28.365Z,46.15
2022-11-15T05:36:55.545Z,46.84
2022-11-15T05:39:22.724Z,46.70
2022-11-15T05:41:56.745Z,45.87
2022-11-15T05:44:25.032Z,46.17
2022-11-15T05:46:57.772Z,45.94
2022-11-15T05:49:31.444Z,46.08
2022-11-15T05:52:00.184Z,45.93
2022-11-15T05:54:27.664Z,45.72
2022-11-15T05:56:55.206Z,45.73
2022-11-15T05:59:22.705Z,45.95
2022-11-15T06:01:50.093Z,45.92
2022-11-15T06:04:17.305Z,46.10
2022-11-15T06:06:45.927Z,46.41
2022-11-15T06:09:13.105Z,45.90
2022-11-15T06:11:40.166Z,45.41
2022-11-15T06:14:07.246Z,46.15
2022-11-15T06:16:34.280Z,45.69
2022-11-15T06:19:02.011Z,44.61
2022-11-15T06:21:29.186Z,44.94
2022-11-15T06:23:57.767Z,45.27
2022-11-15T06:26:24.925Z,45.15
2022-11-15T06:28:52.028Z,45.79
2022-11-15T06:31:19.286Z,43.78
2022-11-15T06:33:47.665Z,45.01
2022-11-15T06:36:17.697Z,45.45
2022-11-15T06:38:46.177Z,45.17
2022-11-15T06:41:15.994Z,45.63
2022-11-15T06:43:43.065Z,45.54
2022-11-15T06:46:10.507Z,45.14
2022-11-15T06:48:37.587Z,45.48
2022-11-15T06:51:06.290Z,45.19
2022-11-15T06:53:34.473Z,45.24
2022-11-15T06:56:03.248Z,45.62
2022-11-15T06:58:32.530Z,45.54
2022-11-15T07:01:02.280Z,46.24
2022-11-15T07:03:30.627Z,45.87
2022-11-15T07:06:05.536Z,46.31
2022-11-15T07:08:35.489Z,45.87
2022-11-15T07:11:06.128Z,46.31
2022-11-15T07:13:37.246Z,45.96
2022-11-15T07:16:05.867Z,46.16
2022-11-15T07:18:35.647Z,45.87
2022-11-15T07:21:04.875Z,45.60
2022-11-15T07:23:32.400Z,45.84
2022-11-15T07:26:00.387Z,45.40
2022-11-15T07:28:28.388Z,45.56
2022-11-15T07:30:56.951Z,45.48
2022-11-15T07:33:24.155Z,45.26
2022-11-15T07:35:51.227Z,45.61
2022-11-15T07:38:19.090Z,46.55
2022-11-15T07:40:46.508Z,45.82
2022-11-15T07:43:14.267Z,46.12
2022-11-15T07:45:43.389Z,45.63
2022-11-15T07:48:12.511Z,46.08
2022-11-15T07:50:42.068Z,45.60
2022-11-15T07:53:10.791Z,46.06
2022-11-15T07:55:37.907Z,45.44
2022-11-15T07:58:07.113Z,46.18
2022-11-15T08:00:35.814Z,45.75
2022-11-15T08:03:04.426Z,45.75
2022-11-15T08:05:33.099Z,45.87
2022-11-15T08:08:00.667Z,46.08
2022-11-15T08:10:28.687Z,46.34
2022-11-15T08:13:00.659Z,45.93
2022-11-15T08:15:28.288Z,46.08
2022-11-15T08:17:56.328Z,46.29
2022-11-15T08:20:23.489Z,45.88
2022-11-15T08:22:52.987Z,44.85
2022-11-15T08:25:20.079Z,44.44
2022-11-15T08:27:47.488Z,47.19
2022-11-15T08:30:14.930Z,42.94
2022-11-15T08:32:42.009Z,44.17
2022-11-15T08:35:09.349Z,41.93
2022-11-15T08:37:36.428Z,41.37
2022-11-15T08:40:06.489Z,42.31
2022-11-15T08:42:33.670Z,41.00
2022-11-15T08:45:00.729Z,40.93
2022-11-15T08:47:27.790Z,41.01
2022-11-15T08:49:54.830Z,41.44
2022-11-15T08:52:22.488Z,42.07
2022-11-15T08:54:49.575Z,42.50
2022-11-15T08:57:18.468Z,42.02
2022-11-15T08:59:45.609Z,43.28
2022-11-15T09:02:14.870Z,43.28
2022-11-15T09:04:42.389Z,43.07
2022-11-15T09:07:10.902Z,42.99
2022-11-15T09:09:39.059Z,42.79
2022-11-15T09:12:08.166Z,43.32
2022-11-15T09:14:36.809Z,43.20
2022-11-15T09:17:04.058Z,43.41
2022-11-15T09:19:31.151Z,42.89
2022-11-15T09:21:58.208Z,40.96
2022-11-15T09:24:25.489Z,42.57
2022-11-15T09:26:53.048Z,44.41
2022-11-15T09:29:20.168Z,43.37
2022-11-15T09:31:48.789Z,45.24
2022-11-15T09:34:15.889Z,45.27
2022-11-15T09:36:43.008Z,43.53
2022-11-15T09:39:11.078Z,44.12
2022-11-15T09:42:02.486Z,40.93
2022-11-15T09:44:48.727Z,40.41
2022-11-15T09:47:56.948Z,41.63
2022-11-15T09:50:35.269Z,41.10
2022-11-15T09:53:03.188Z,40.16
2022-11-15T09:55:42.068Z,40.08
2022-11-15T09:58:25.625Z,40.20
2022-11-15T10:00:53.346Z,40.47
2022-11-15T10:03:28.449Z,40.39
2022-11-15T10:06:01.729Z,39.81
2022-11-15T10:08:50.995Z,40.60
2022-11-15T10:11:36.596Z,41.11
2022-11-15T10:14:13.448Z,40.33
2022-11-15T10:17:08.461Z,42.03
2022-11-15T10:19:48.788Z,43.01
2022-11-15T10:22:31.490Z,43.40
2022-11-15T10:25:18.247Z,44.11
2022-11-15T10:27:54.509Z,42.86
2022-11-15T10:30:22.711Z,41.78
2022-11-15T10:32:50.108Z,40.78
2022-11-15T10:35:22.340Z,42.53
2022-11-15T10:37:49.651Z,42.12
2022-11-15T10:40:20.567Z,43.69
2022-11-15T10:42:47.910Z,44.51
2022-11-15T10:45:28.452Z,43.18
2022-11-15T10:48:22.747Z,44.75
2022-11-15T10:50:53.733Z,44.66
2022-11-15T10:53:38.808Z,42.78
2022-11-15T10:56:12.771Z,43.15
2022-11-15T10:58:43.449Z,44.30
2022-11-15T11:01:15.120Z,44.31
2022-11-15T11:03:44.676Z,43.67
2022-11-15T11:06:15.230Z,42.83
2022-11-15T11:08:56.348Z,43.21
2022-11-15T11:11:23.690Z,43.33
2022-11-15T11:13:51.134Z,43.79
2022-11-15T11:16:42.268Z,43.88
2022-11-15T11:19:35.172Z,42.77
2022-11-15T11:22:15.028Z,43.56
2022-11-15T11:24:47.633Z,43.81
2022-11-15T11:27:30.148Z,44.00
2022-11-15T11:30:09.930Z,44.94
2022-11-15T11:33:02.427Z,45.13
2022-11-15T11:35:37.953Z,42.40
2022-11-15T11:38:31.308Z,41.51
2022-11-15T11:41:11.767Z,42.60
2022-11-15T11:43:53.651Z,41.61
2022-11-15T11:46:45.191Z,42.84
2022-11-15T11:49:20.107Z,41.94
2022-11-15T11:51:55.206Z,42.45
2022-11-15T11:54:32.569Z,41.76
2022-11-15T11:57:04.166Z,41.27
2022-11-15T11:59:42.568Z,42.12
2022-11-15T12:02:18.188Z,41.35
2022-11-15T12:04:51.367Z,42.63
2022-11-15T12:07:24.609Z,43.55
2022-11-15T12:10:00.605Z,44.01
2022-11-15T12:12:39.807Z,44.11
2022-11-15T12:15:16.968Z,44.94
2022-11-15T12:17:46.287Z,45.54
2022-11-15T12:20:19.747Z,47.13
2022-11-15T12:22:55.210Z,47.43
2022-11-15T12:25:30.647Z,46.26
2022-11-15T12:28:04.666Z,48.17
2022-11-15T12:30:57.356Z,47.05
2022-11-15T12:33:34.926Z,47.84
2022-11-15T12:36:04.566Z,48.46
2022-11-15T12:39:05.907Z,48.54
2022-11-15T12:41:36.867Z,48.53
2022-11-15T12:44:05.627Z,48.13
2022-11-15T12:47:01.509Z,48.44
2022-11-15T12:49:47.226Z,48.72
2022-11-15T12:52:15.206Z,48.81
2022-11-15T12:54:54.861Z,48.80
2022-11-15T12:57:40.964Z,48.88
2022-11-15T13:00:44.309Z,48.23
2022-11-15T13:03:28.907Z,47.85
2022-11-15T13:06:06.329Z,48.18
2022-11-15T13:08:45.968Z,47.90
2022-11-15T13:11:48.826Z,48.16
2022-11-15T13:14:49.689Z,48.12
2022-11-15T13:17:30.861Z,48.14
2022-11-15T13:20:20.589Z,48.72
2022-11-15T13:22:50.608Z,48.30
2022-11-15T13:25:24.789Z,49.37
2022-11-15T13:27:52.990Z,49.40
2022-11-15T13:30:24.889Z,48.47
2022-11-15T13:32:54.007Z,48.16
2022-11-15T13:35:24.871Z,48.72
2022-11-15T13:37:54.088Z,49.03
2022-11-15T13:40:25.809Z,48.14
2022-11-15T13:42:52.966Z,49.52
2022-11-15T13:45:22.507Z,49.68
2022-11-15T13:47:55.519Z,49.34
2022-11-15T13:50:27.547Z,49.00
2022-11-15T13:52:59.868Z,49.78
2022-11-15T13:55:28.611Z,48.90
2022-11-15T13:57:59.990Z,49.63
2022-11-15T14:00:35.592Z,49.70
2022-11-15T14:03:17.427Z,49.32
2022-11-15T14:05:44.949Z,48.61
2022-11-15T14:08:24.817Z,48.25
2022-11-15T14:11:08.982Z,49.06
2022-11-15T14:13:37.787Z,48.36
2022-11-15T14:16:18.627Z,47.48
2022-11-15T14:18:48.649Z,47.25
2022-11-15T14:21:16.831Z,47.23
2022-11-15T14:23:44.370Z,47.83
2022-11-15T14:26:30.310Z,47.03
2022-11-15T14:28:57.691Z,48.46
2022-11-15T14:31:26.372Z,48.43
2022-11-15T14:33:53.487Z,48.31
2022-11-15T14:36:22.149Z,48.65
2022-11-15T14:38:49.507Z,48.83
2022-11-15T14:41:22.533Z,49.24
2022-11-15T14:43:50.212Z,49.00
2022-11-15T14:46:18.007Z,49.11
2022-11-15T14:48:47.091Z,48.66
2022-11-15T14:51:16.429Z,48.79
2022-11-15T14:53:45.108Z,48.57
2022-11-15T14:56:14.311Z,48.07
2022-11-15T14:58:42.949Z,48.60
2022-11-15T15:01:14.920Z,48.65
2022-11-15T15:03:42.328Z,48.75
2022-11-15T15:06:16.529Z,48.63
2022-11-15T15:08:45.072Z,48.39
2022-11-15T15:11:18.008Z,47.31
2022-11-15T15:13:45.133Z,55.86
2022-11-15T15:16:12.351Z,50.80
2022-11-15T15:18:39.612Z,46.59
2022-11-15T15:21:22.073Z,43.75
2022-11-15T15:23:50.907Z,42.08
2022-11-15T15:26:18.347Z,41.08
2022-11-15T15:28:45.514Z,40.11
2022-11-15T15:31:12.669Z,37.57
2022-11-15T15:36:09.491Z,40.17
2022-11-15T15:38:38.090Z,41.47
2022-11-15T15:41:05.686Z,42.89
2022-11-15T15:43:32.909Z,43.51
2022-11-15T15:46:00.008Z,44.50
2022-11-15T15:48:27.129Z,45.69
2022-11-15T15:50:54.267Z,45.75
2022-11-15T15:53:21.786Z,46.06
2022-11-15T15:55:50.372Z,46.19
2022-11-15T15:58:17.555Z,46.73
2022-11-15T16:00:44.652Z,47.59
2022-11-15T16:03:11.777Z,47.70
2022-11-15T16:05:39.511Z,48.12
2022-11-15T16:08:06.728Z,48.25
2022-11-15T16:10:35.429Z,48.14
2022-11-15T16:13:04.089Z,48.39
2022-11-15T16:15:33.088Z,47.91
2022-11-15T16:18:02.656Z,47.93
2022-11-15T16:20:34.083Z,48.48
2022-11-15T16:23:07.557Z,48.54
2022-11-15T16:25:42.092Z,48.37
2022-11-15T16:28:22.037Z,48.58
2022-11-15T16:30:56.426Z,48.88
2022-11-15T16:33:24.528Z,48.49
2022-11-15T16:35:51.908Z,49.47
2022-11-15T16:38:19.387Z,48.61
2022-11-15T16:40:46.551Z,48.72
2022-11-15T16:43:13.608Z,48.78
2022-11-15T16:45:42.232Z,49.39
2022-11-15T16:48:22.974Z,49.27
2022-11-15T16:50:50.069Z,49.33
2022-11-15T16:53:17.208Z,48.90
2022-11-15T16:55:44.362Z,48.94
2022-11-15T16:58:11.490Z,49.05
2022-11-15T17:00:38.535Z,49.43
2022-11-15T17:03:07.078Z,48.77
2022-11-15T17:05:34.273Z,49.26
2022-11-15T17:08:01.372Z,48.75
2022-11-15T17:10:28.470Z,49.12
2022-11-15T17:12:56.377Z,48.94
2022-11-15T17:15:23.947Z,48.54
2022-11-15T17:17:52.971Z,48.57
2022-11-15T17:20:23.969Z,49.19
2022-11-15T17:22:51.788Z,49.20
2022-11-15T17:25:19.069Z,49.03
2022-11-15T17:27:46.289Z,48.22
2022-11-15T17:30:15.527Z,48.84
2022-11-15T17:32:43.471Z,48.98
2022-11-15T17:35:15.705Z,49.16
2022-11-15T17:37:44.753Z,49.23
2022-11-15T17:40:12.267Z,48.55
2022-11-15T17:42:41.327Z,49.09
2022-11-15T17:45:10.515Z,48.75
2022-11-15T17:47:38.248Z,48.89
2022-11-15T17:50:05.968Z,48.23
2022-11-15T17:52:33.027Z,48.00
2022-11-15T17:55:01.516Z,48.11
2022-11-15T17:57:28.610Z,48.79
2022-11-15T17:59:55.830Z,48.71
2022-11-15T18:02:23.239Z,47.35
2022-11-15T18:04:50.393Z,48.24
2022-11-15T18:07:17.725Z,47.17
2022-11-15T18:09:44.874Z,44.88
2022-11-15T18:12:13.409Z,45.97
2022-11-15T18:14:40.471Z,45.58
2022-11-15T18:17:07.607Z,46.70
2022-11-15T18:19:34.647Z,46.49
2022-11-15T18:22:01.947Z,47.01
2022-11-15T18:24:31.072Z,46.94
2022-11-15T18:26:59.976Z,46.99
2022-11-15T18:29:28.872Z,47.21
2022-11-15T18:31:56.218Z,46.35
2022-11-15T18:34:24.888Z,46.68
2022-11-15T18:36:53.427Z,46.90
2022-11-15T18:39:21.229Z,46.88
2022-11-15T18:41:48.888Z,46.40
2022-11-15T18:44:17.450Z,47.14
2022-11-15T18:46:46.109Z,47.03
2022-11-15T18:49:15.389Z,47.27
2022-11-15T18:51:43.728Z,47.40
2022-11-15T18:54:12.727Z,47.60
2022-11-15T18:56:40.491Z,47.63
2022-11-15T18:59:07.950Z,47.66
2022-11-15T19:01:37.111Z,47.50
2022-11-15T19:04:08.727Z,47.59
2022-11-15T19:06:39.048Z,47.81
2022-11-15T19:09:07.712Z,47.68
2022-11-15T19:11:37.128Z,47.71
2022-11-15T19:14:06.467Z,48.40
2022-11-15T19:16:37.249Z,48.20
2022-11-15T19:19:10.330Z,49.17
2022-11-15T19:21:37.507Z,49.06
2022-11-15T19:24:05.289Z,49.28
2022-11-15T19:26:32.488Z,48.91
2022-11-15T19:29:01.798Z,48.85
2022-11-15T19:31:30.708Z,48.64
2022-11-15T19:33:59.849Z,48.39
2022-11-15T19:36:30.547Z,49.02
2022-11-15T19:38:57.828Z,49.36
2022-11-15T19:41:25.669Z,49.16
2022-11-15T19:43:53.606Z,48.87
2022-11-15T19:46:22.487Z,49.75
2022-11-15T19:48:50.531Z,49.26
2022-11-15T19:51:19.836Z,48.84
2022-11-15T19:53:48.808Z,49.07
2022-11-15T19:56:18.707Z,49.72
2022-11-15T19:58:49.947Z,49.85
2022-11-15T20:01:18.784Z,49.07
2022-11-15T20:03:47.068Z,49.68
2022-11-15T20:06:16.628Z,49.71
2022-11-15T20:08:44.668Z,50.02
2022-11-15T20:11:13.888Z,50.16
2022-11-15T20:13:42.107Z,50.26
2022-11-15T20:16:14.712Z,50.15
2022-11-15T20:18:41.867Z,50.10
2022-11-15T20:21:09.888Z,49.97
2022-11-15T20:23:37.046Z,49.69
2022-11-15T20:26:04.611Z,50.18
2022-11-15T20:28:33.376Z,50.29
2022-11-15T20:31:01.986Z,50.28
2022-11-15T20:33:29.246Z,50.28
2022-11-15T20:35:56.286Z,50.34
2022-11-15T20:38:23.967Z,50.17
2022-11-15T20:40:56.041Z,50.50
2022-11-15T20:43:26.248Z,50.36
2022-11-15T20:45:55.308Z,50.91
2022-11-15T20:48:22.586Z,50.75
2022-11-15T20:50:49.769Z,50.97
2022-11-15T20:53:19.788Z,51.03
2022-11-15T20:55:48.706Z,51.02
2022-11-15T20:58:17.157Z,51.47
2022-11-15T21:00:45.124Z,51.46
2022-11-15T21:03:14.818Z,51.17
2022-11-15T21:05:44.433Z,51.74
2022-11-15T21:08:13.651Z,51.39
2022-11-15T21:10:41.268Z,51.68
2022-11-15T21:13:08.327Z,51.45
2022-11-15T21:15:35.348Z,51.74
2022-11-15T21:18:02.428Z,51.63
2022-11-15T21:20:31.007Z,51.44
2022-11-15T21:22:58.247Z,51.05
2022-11-15T21:25:25.388Z,51.63
2022-11-15T21:27:52.986Z,51.62
2022-11-15T21:30:20.330Z,51.83
2022-11-15T21:32:47.468Z,51.36
2022-11-15T21:35:14.528Z,51.62
2022-11-15T21:37:43.149Z,51.14
2022-11-15T21:40:11.586Z,51.88
2022-11-15T21:42:38.653Z,51.90
2022-11-15T21:45:07.389Z,51.69
2022-11-15T21:47:34.527Z,51.65
2022-11-15T21:50:01.632Z,51.79
2022-11-15T21:52:28.728Z,51.32
2022-11-15T21:54:57.233Z,51.69
2022-11-15T21:57:24.329Z,51.53
2022-11-15T21:59:51.369Z,52.05
2022-11-15T22:02:18.467Z,51.44
2022-11-15T22:04:45.870Z,51.54
2022-11-15T22:07:12.926Z,51.75
2022-11-15T22:09:40.452Z,52.14
2022-11-15T22:12:08.929Z,52.22
2022-11-15T22:14:36.048Z,52.07
2022-11-15T22:17:03.207Z,52.19
2022-11-15T22:19:30.314Z,51.98
2022-11-15T22:21:57.426Z,51.82
2022-11-15T22:24:24.553Z,51.51
2022-11-15T22:26:51.651Z,51.66
2022-11-15T22:29:20.148Z,58.92
2022-11-15T22:31:47.351Z,55.11
2022-11-15T22:34:14.529Z,51.73
2022-11-15T22:36:58.866Z,49.65
2022-11-15T22:39:28.948Z,48.65
2022-11-15T22:41:56.747Z,45.73
2022-11-15T22:44:25.256Z,46.71
2022-11-15T22:46:52.330Z,47.71
2022-11-15T22:49:19.388Z,47.67
2022-11-15T22:51:46.408Z,48.47
2022-11-15T22:54:13.507Z,49.16
2022-11-15T22:56:40.587Z,49.48
2022-11-15T22:59:07.687Z,49.59
2022-11-15T23:01:36.126Z,50.37
2022-11-15T23:04:03.320Z,50.06
2022-11-15T23:06:30.487Z,50.54
2022-11-15T23:08:57.567Z,50.64
2022-11-15T23:11:24.610Z,50.72
2022-11-15T23:13:52.728Z,50.98
2022-11-15T23:16:21.212Z,51.49
2022-11-15T23:18:51.287Z,51.35
2022-11-15T23:21:21.869Z,51.26
2022-11-15T23:23:48.949Z,51.38
2022-11-15T23:26:16.009Z,51.24
2022-11-15T23:28:43.168Z,51.30
2022-11-15T23:31:10.287Z,51.58
2022-11-15T23:33:37.306Z,51.47
2022-11-15T23:36:06.967Z,51.94
2022-11-15T23:38:35.392Z,51.34
2022-11-15T23:41:02.887Z,51.13
2022-11-15T23:43:30.430Z,51.43
2022-11-15T23:45:57.607Z,51.74
2022-11-15T23:48:24.701Z,51.11
2022-11-15T23:50:51.748Z,51.71
2022-11-15T23:53:20.786Z,52.35
2022-11-15T23:55:55.106Z,52.38
2022-11-15T23:58:22.287Z,52.35
